Time;durP1;ratioP1;P1;durP2;ratioP2;P2;SDS_P1;SDS_P2;PMS_P1;PMS_P2;Temp;Humidity;BMP_temperature;BMP_pressure;BME280_temperature;BME280_humidity;BME280_pressure;Samples;Min_cycle;Max_cycle;Signal;HPM_P1;HPM_P2
2021/06/13 00:01:38;;;;;;;6.70;6.10;;;;;;;15.75;69.37;98619.91;5104071;27;20194;-70
2021/06/13 00:04:05;;;;;;;5.43;4.97;;;;;;;15.73;67.90;98625.44;5107279;27;20668;-71
2021/06/13 00:06:33;;;;;;;5.47;4.97;;;;;;;15.74;66.90;98615.59;5109225;27;20604;-71
2021/06/13 00:09:00;;;;;;;5.63;4.07;;;;;;;15.68;66.56;98618.97;5106988;27;20233;-70
2021/06/13 00:11:28;;;;;;;6.27;4.70;;;;;;;15.73;65.81;98622.75;5105545;27;20225;-72
2021/06/13 00:13:56;;;;;;;5.07;4.40;;;;;;;15.70;66.09;98619.63;5102574;27;20205;-70
2021/06/13 00:16:23;;;;;;;5.70;4.60;;;;;;;15.68;66.11;98614.47;5101704;27;20409;-70
2021/06/13 00:18:55;;;;;;;4.37;3.97;;;;;;;15.63;66.18;98619.53;5101722;27;20198;-69
2021/06/13 00:21:23;;;;;;;4.90;4.10;;;;;;;15.60;66.76;98622.56;5102755;27;20662;-70
2021/06/13 00:23:51;;;;;;;4.67;4.17;;;;;;;15.51;67.83;98627.16;5103673;27;20201;-70
2021/06/13 00:26:23;;;;;;;4.87;4.17;;;;;;;15.46;67.48;98635.69;5102656;27;20256;-71
2021/06/13 00:28:53;;;;;;;4.53;4.20;;;;;;;15.32;67.87;98631.94;5101465;27;20754;-69
2021/06/13 00:31:21;;;;;;;6.97;4.20;;;;;;;15.27;67.23;98633.50;5101851;27;20249;-71
2021/06/13 00:33:50;;;;;;;4.80;4.40;;;;;;;15.24;67.51;98640.03;5105673;27;20233;-70
2021/06/13 00:36:19;;;;;;;4.63;4.13;;;;;;;15.25;67.41;98640.88;5105392;27;20221;-71
2021/06/13 00:38:47;;;;;;;4.40;3.93;;;;;;;15.22;67.41;98641.25;5101392;27;20198;-70
2021/06/13 00:41:16;;;;;;;4.90;3.97;;;;;;;15.08;67.63;98637.50;5108215;27;20197;-70
2021/06/13 00:43:43;;;;;;;4.13;3.80;;;;;;;15.10;67.54;98646.97;5099118;27;20207;-70
2021/06/13 00:46:11;;;;;;;5.30;3.87;;;;;;;15.00;67.43;98649.88;5101976;27;20236;-70
2021/06/13 00:48:38;;;;;;;4.57;4.17;;;;;;;14.95;68.05;98659.41;5101012;27;20685;-70
2021/06/13 00:51:06;;;;;;;3.90;3.60;;;;;;;14.98;67.04;98651.91;5105333;27;20221;-72
2021/06/13 00:53:36;;;;;;;4.97;3.70;;;;;;;14.95;67.49;98654.09;5102625;27;20578;-70
2021/06/13 00:56:04;;;;;;;3.93;3.63;;;;;;;14.97;67.64;98654.72;5100718;27;20221;-71
2021/06/13 00:58:32;;;;;;;6.53;4.53;;;;;;;14.84;67.76;98650.81;5099831;28;20674;-70
2021/06/13 01:00:59;;;;;;;3.80;3.50;;;;;;;14.83;68.24;98662.50;5104843;27;20198;-72
2021/06/13 01:03:27;;;;;;;3.30;3.10;;;;;;;14.75;68.04;98663.34;5101617;27;20202;-71
2021/06/13 01:05:54;;;;;;;5.27;3.43;;;;;;;14.64;68.93;98665.53;5100526;27;20629;-70
2021/06/13 01:08:30;;;;;;;4.00;3.50;;;;;;;14.53;69.39;98661.41;5100527;27;20224;-72
2021/06/13 01:11:08;;;;;;;5.30;3.67;;;;;;;14.42;70.13;98658.13;5107053;27;20215;-71
2021/06/13 01:13:44;;;;;;;6.37;3.80;;;;;;;14.47;70.16;98660.28;5100280;28;20222;-71
2021/06/13 01:16:23;;;;;;;3.83;3.53;;;;;;;14.46;70.47;98667.44;5103539;27;20263;-71
2021/06/13 01:18:55;;;;;;;6.83;4.17;;;;;;;14.39;71.05;98662.97;5105725;27;20205;-71
2021/06/13 01:21:23;;;;;;;4.40;3.87;;;;;;;14.37;71.15;98668.50;5108042;28;20201;-70
2021/06/13 01:24:12;;;;;;;4.27;3.87;;;;;;;14.17;73.33;98666.19;5100747;27;20232;-71
2021/06/13 01:27:08;;;;;;;4.23;3.90;;;;;;;14.18;73.07;98661.72;5099820;27;20308;-70
2021/06/13 01:29:41;;;;;;;4.57;4.17;;;;;;;14.26;72.20;98667.00;5099627;27;20677;-69
2021/06/13 01:32:15;;;;;;;4.30;3.97;;;;;;;14.03;73.30;98661.59;5100134;28;20283;-68
2021/06/13 01:34:47;;;;;;;4.97;3.70;;;;;;;13.85;75.24;98661.78;5099432;28;20201;-70
2021/06/13 01:37:17;;;;;;;4.53;4.13;;;;;;;13.94;74.65;98665.28;5096364;28;20226;-70
2021/06/13 01:39:51;;;;;;;4.10;3.70;;;;;;;13.74;75.08;98660.28;5101070;27;20227;-71
2021/06/13 01:42:19;;;;;;;4.00;3.73;;;;;;;13.73;75.67;98661.28;5103277;28;20667;-70
2021/06/13 01:44:49;;;;;;;5.53;3.90;;;;;;;13.69;76.57;98658.16;5102146;28;20286;-68
2021/06/13 01:47:17;;;;;;;5.93;4.00;;;;;;;13.72;76.46;98655.16;5102357;28;20282;-71
2021/06/13 01:49:45;;;;;;;5.53;4.13;;;;;;;13.66;76.34;98663.81;5101570;28;20262;-71
2021/06/13 01:52:14;;;;;;;5.73;4.33;;;;;;;13.70;76.16;98658.97;5104651;28;20430;-71
2021/06/13 01:54:43;;;;;;;4.63;3.90;;;;;;;13.43;77.53;98663.63;5100608;28;20198;-70
2021/06/13 01:57:11;;;;;;;4.83;3.67;;;;;;;13.56;76.96;98663.13;5103480;28;20214;-69
2021/06/13 01:59:41;;;;;;;6.00;3.67;;;;;;;13.60;76.24;98656.47;5104636;27;20232;-71
2021/06/13 02:02:12;;;;;;;5.97;3.80;;;;;;;13.61;75.73;98655.47;5101936;28;20202;-70
2021/06/13 02:04:41;;;;;;;4.67;3.77;;;;;;;13.40;77.81;98658.59;5093291;28;20253;-71
2021/06/13 02:07:09;;;;;;;6.97;4.33;;;;;;;13.49;76.46;98662.13;5099724;28;20225;-69
2021/06/13 02:09:37;;;;;;;5.27;4.10;;;;;;;13.44;76.65;98665.28;5101600;28;20209;-69
2021/06/13 02:12:06;;;;;;;4.10;3.80;;;;;;;13.26;78.25;98665.44;5100986;28;20268;-70
2021/06/13 02:14:35;;;;;;;4.77;4.37;;;;;;;13.02;79.23;98664.38;5098842;28;20201;-71
2021/06/13 02:17:07;;;;;;;4.77;4.37;;;;;;;12.92;81.05;98666.38;5095734;28;20283;-69
2021/06/13 02:19:41;;;;;;;3.97;3.67;;;;;;;12.82;81.25;98682.47;5095780;28;20561;-71
2021/06/13 02:22:13;;;;;;;4.80;4.03;;;;;;;12.68;82.63;98684.72;5107734;28;20197;-72
2021/06/13 02:24:42;;;;;;;4.20;3.90;;;;;;;12.54;83.22;98688.84;5102579;28;20201;-71
2021/06/13 02:27:11;;;;;;;4.40;4.10;;;;;;;12.53;82.74;98689.00;5105091;27;20225;-71
2021/06/13 02:29:40;;;;;;;3.50;3.20;;;;;;;12.62;81.84;98693.34;5101296;27;20518;-70
2021/06/13 02:32:09;;;;;;;5.60;3.67;;;;;;;13.01;78.01;98695.47;5105442;27;20819;-70
2021/06/13 02:34:39;;;;;;;4.87;3.47;;;;;;;12.98;78.56;98693.13;5106645;27;20205;-68
2021/06/13 02:37:10;;;;;;;4.67;4.13;;;;;;;13.11;76.72;98695.34;5104984;27;20225;-68
2021/06/13 02:39:38;;;;;;;4.83;3.60;;;;;;;13.09;76.75;98699.16;5102632;27;20213;-69
2021/06/13 02:42:07;;;;;;;4.20;3.50;;;;;;;13.01;77.34;98702.63;5105703;27;20197;-69
2021/06/13 02:44:37;;;;;;;4.37;3.50;;;;;;;13.13;75.75;98703.97;5100650;27;20663;-68
2021/06/13 02:47:05;;;;;;;7.20;3.50;;;;;;;13.15;76.30;98709.97;5102160;27;20349;-70
2021/06/13 02:49:33;;;;;;;5.53;3.60;;;;;;;13.26;75.34;98710.69;5106357;27;20212;-71
2021/06/13 02:52:07;;;;;;;3.40;3.20;;;;;;;13.18;75.60;98706.16;5107318;27;20224;-70
2021/06/13 02:54:36;;;;;;;4.57;4.10;;;;;;;13.17;75.89;98717.81;5105069;27;20204;-70
2021/06/13 02:57:06;;;;;;;3.40;3.10;;;;;;;12.94;78.04;98714.91;5103771;27;20255;-70
2021/06/13 02:59:37;;;;;;;3.83;3.17;;;;;;;12.76;78.53;98715.03;5104501;27;20228;-69
2021/06/13 03:02:07;;;;;;;4.13;3.00;;;;;;;12.57;80.60;98724.91;5108249;27;20743;-71
2021/06/13 03:04:36;;;;;;;4.03;3.23;;;;;;;12.44;81.41;98723.53;5103870;28;20197;-70
2021/06/13 03:07:05;;;;;;;5.93;3.37;;;;;;;12.31;82.69;98723.09;5101198;27;20718;-68
2021/06/13 03:09:33;;;;;;;3.90;3.20;;;;;;;12.34;82.20;98719.31;5104761;27;20688;-70
2021/06/13 03:12:01;;;;;;;4.20;3.83;;;;;;;12.33;84.04;98720.28;5100101;27;20237;-72
2021/06/13 03:14:31;;;;;;;8.13;4.40;;;;;;;12.15;85.38;98721.19;5104621;27;20310;-70
2021/06/13 03:16:59;;;;;;;3.87;3.63;;;;;;;11.96;87.17;98720.38;5099880;27;20225;-72
2021/06/13 03:19:28;;;;;;;5.10;4.03;;;;;;;11.85;87.77;98732.06;5102487;27;20205;-69
2021/06/13 03:21:59;;;;;;;4.10;3.80;;;;;;;11.83;88.72;98735.88;5105087;27;20762;-69
2021/06/13 03:24:28;;;;;;;4.30;3.20;;;;;;;11.72;88.81;98736.94;5103544;27;20662;-68
2021/06/13 03:26:57;;;;;;;5.10;4.13;;;;;;;11.60;89.93;98746.13;5104196;27;20249;-70
2021/06/13 03:29:26;;;;;;;4.30;4.00;;;;;;;11.70;90.62;98749.53;5103943;27;20285;-70
2021/06/13 03:31:55;;;;;;;4.17;3.87;;;;;;;11.50;91.83;98748.84;5102144;27;20727;-70
2021/06/13 03:34:22;;;;;;;6.23;5.50;;;;;;;11.35;93.66;98751.19;5101542;27;20202;-71
2021/06/13 03:36:51;;;;;;;4.37;4.07;;;;;;;11.32;94.50;98754.16;5104906;27;20701;-70
2021/06/13 03:39:19;;;;;;;4.00;3.70;;;;;;;11.22;95.42;98751.56;5102207;27;20444;-71
2021/06/13 03:41:49;;;;;;;4.20;3.90;;;;;;;11.15;95.86;98749.50;5104906;27;20193;-71
2021/06/13 03:44:17;;;;;;;5.57;4.80;;;;;;;11.14;96.65;98753.16;5102097;27;20206;-70
2021/06/13 03:46:45;;;;;;;4.90;4.57;;;;;;;11.12;96.80;98751.59;5100600;28;20256;-69
2021/06/13 03:49:16;;;;;;;6.20;4.20;;;;;;;11.17;96.36;98756.47;5072486;28;20233;-66
2021/06/13 03:51:45;;;;;;;5.17;4.40;;;;;;;11.18;96.25;98764.31;5102103;28;20237;-68
2021/06/13 03:54:13;;;;;;;5.03;4.20;;;;;;;11.24;96.30;98774.31;5100950;28;20208;-66
2021/06/13 03:56:42;;;;;;;3.70;3.50;;;;;;;11.23;96.01;98777.94;5102619;28;20228;-68
2021/06/13 03:59:12;;;;;;;5.03;4.43;;;;;;;11.26;95.96;98768.84;5099999;28;20209;-65
2021/06/13 04:01:41;;;;;;;5.80;5.17;;;;;;;11.36;95.53;98771.44;5099955;28;20201;-67
2021/06/13 04:04:11;;;;;;;4.00;3.70;;;;;;;11.42;95.33;98770.84;5096667;28;20209;-67
2021/06/13 04:06:40;;;;;;;6.40;4.63;;;;;;;11.60;94.57;98762.06;5102331;28;21056;-67
2021/06/13 04:09:10;;;;;;;4.43;4.03;;;;;;;11.62;94.75;98771.53;5102587;28;20695;-66
2021/06/13 04:11:38;;;;;;;4.73;4.43;;;;;;;11.53;95.40;98781.22;5100769;28;20685;-66
2021/06/13 04:14:07;;;;;;;6.43;4.50;;;;;;;11.67;94.86;98784.34;5097435;28;20202;-67
2021/06/13 04:16:36;;;;;;;4.57;4.17;;;;;;;11.73;93.85;98786.41;5100690;28;20221;-66
2021/06/13 04:19:04;;;;;;;4.50;4.20;;;;;;;11.81;93.11;98786.47;5100048;28;20306;-67
2021/06/13 04:21:32;;;;;;;6.20;3.97;;;;;;;11.90;90.79;98792.69;5101901;28;20209;-66
2021/06/13 04:24:01;;;;;;;6.40;4.00;;;;;;;12.08;89.55;98786.53;5100437;28;20214;-66
2021/06/13 04:26:29;;;;;;;5.30;3.67;;;;;;;12.29;87.92;98796.84;5099057;28;20221;-67
2021/06/13 04:28:57;;;;;;;4.40;3.90;;;;;;;12.63;84.65;98797.91;5102554;28;20771;-66
2021/06/13 04:31:26;;;;;;;3.90;3.60;;;;;;;12.82;82.05;98802.97;5095358;28;20213;-70
2021/06/13 04:33:55;;;;;;;6.97;4.17;;;;;;;12.83;82.17;98796.66;5101155;28;20205;-72
2021/06/13 04:36:24;;;;;;;5.13;3.63;;;;;;;12.86;82.08;98806.97;5102382;28;20227;-69
2021/06/13 04:38:52;;;;;;;4.63;3.43;;;;;;;12.91;78.57;98808.34;5101631;28;20752;-70
2021/06/13 04:41:21;;;;;;;5.37;4.17;;;;;;;12.88;80.32;98809.50;5098328;28;20206;-70
2021/06/13 04:43:49;;;;;;;4.03;3.30;;;;;;;12.97;78.61;98805.06;5096756;28;20783;-70
2021/06/13 04:46:21;;;;;;;4.83;3.20;;;;;;;12.86;78.70;98806.97;5101749;28;20240;-70
2021/06/13 04:48:49;;;;;;;4.07;3.13;;;;;;;13.05;76.12;98820.19;5097585;28;20293;-70
2021/06/13 04:51:21;;;;;;;3.23;2.97;;;;;;;13.13;74.10;98823.72;5096450;28;20209;-70
2021/06/13 04:54:19;;;;;;;3.97;3.60;;;;;;;13.07;73.74;98820.88;5099459;28;20286;-71
2021/06/13 04:57:16;;;;;;;3.80;3.10;;;;;;;13.17;73.25;98818.94;5101757;28;20278;-70
2021/06/13 04:59:44;;;;;;;4.20;3.33;;;;;;;13.20;73.22;98815.09;5082493;28;20202;-70
2021/06/13 05:02:12;;;;;;;3.63;3.30;;;;;;;13.38;72.28;98820.31;5098642;28;20600;-71
2021/06/13 05:04:40;;;;;;;3.60;3.07;;;;;;;13.19;71.48;98832.91;5094166;28;20206;-71
2021/06/13 05:07:09;;;;;;;4.13;3.47;;;;;;;13.22;72.16;98832.59;5098461;28;20233;-70
2021/06/13 05:09:37;;;;;;;4.70;3.33;;;;;;;13.25;71.91;98842.06;5102778;28;20597;-70
2021/06/13 05:12:06;;;;;;;4.37;3.87;;;;;;;13.46;71.90;98839.84;5098394;28;20228;-71
2021/06/13 05:14:37;;;;;;;3.67;3.37;;;;;;;13.56;71.74;98842.38;5101356;28;20745;-70
2021/06/13 05:17:06;;;;;;;3.73;3.20;;;;;;;13.51;71.16;98839.38;5094219;28;20229;-69
2021/06/13 05:19:34;;;;;;;4.50;3.57;;;;;;;13.59;70.96;98838.53;5097194;28;20239;-71
2021/06/13 05:22:05;;;;;;;5.40;4.03;;;;;;;13.59;70.84;98843.88;5099204;28;20240;-71
2021/06/13 05:24:35;;;;;;;7.37;3.23;;;;;;;13.64;69.79;98841.59;5099926;28;20574;-70
2021/06/13 05:27:04;;;;;;;3.83;3.40;;;;;;;13.50;69.82;98845.69;5099821;28;20739;-70
2021/06/13 05:29:32;;;;;;;5.87;3.17;;;;;;;13.51;70.34;98842.03;5101063;28;20202;-71
2021/06/13 05:32:00;;;;;;;5.17;3.00;;;;;;;13.41;69.56;98841.28;5101470;28;20665;-71
2021/06/13 05:34:27;;;;;;;3.97;3.43;;;;;;;13.51;70.09;98847.38;5101897;28;20197;-70
2021/06/13 05:36:55;;;;;;;4.77;2.97;;;;;;;13.47;70.46;98848.69;5102419;28;20229;-70
2021/06/13 05:39:23;;;;;;;4.17;3.77;;;;;;;13.69;70.27;98854.41;5094067;28;20201;-70
2021/06/13 05:41:53;;;;;;;3.67;3.10;;;;;;;13.82;68.73;98854.75;5099759;28;20206;-70
2021/06/13 05:44:20;;;;;;;3.20;2.90;;;;;;;13.88;68.22;98858.59;5099947;28;20209;-71
2021/06/13 05:46:48;;;;;;;3.53;2.70;;;;;;;13.90;67.58;98867.25;5100894;28;20455;-70
2021/06/13 05:49:16;;;;;;;4.97;3.10;;;;;;;13.94;66.75;98868.59;5100166;28;20205;-68
2021/06/13 05:51:44;;;;;;;8.13;3.20;;;;;;;13.96;67.78;98868.44;5101593;28;20205;-68
2021/06/13 05:54:12;;;;;;;4.23;3.03;;;;;;;13.95;67.74;98869.44;5099463;28;20232;-66
2021/06/13 05:56:40;;;;;;;3.90;3.20;;;;;;;14.12;67.30;98880.97;5098864;28;20248;-68
2021/06/13 05:59:09;;;;;;;3.87;2.83;;;;;;;14.12;66.49;98875.63;5095979;28;20209;-68
2021/06/13 06:01:37;;;;;;;4.93;3.30;;;;;;;14.08;66.67;98879.63;5096775;28;20201;-67
2021/06/13 06:04:05;;;;;;;5.70;3.20;;;;;;;14.12;66.48;98881.78;5101522;28;20201;-67
2021/06/13 06:06:33;;;;;;;3.90;3.03;;;;;;;13.95;67.47;98885.44;5099142;28;20229;-68
2021/06/13 06:09:01;;;;;;;3.10;2.80;;;;;;;14.15;67.45;98881.44;5102894;28;20669;-68
2021/06/13 06:11:30;;;;;;;4.63;3.50;;;;;;;14.15;66.86;98893.94;5103126;28;20206;-68
2021/06/13 06:13:58;;;;;;;3.97;3.67;;;;;;;14.14;67.37;98893.09;5097397;28;20221;-67
2021/06/13 06:16:37;;;;;;;4.33;3.00;;;;;;;14.27;65.47;98889.13;5095719;28;20290;-68
2021/06/13 06:19:09;;;;;;;3.87;3.20;;;;;;;14.29;66.73;98901.28;5100692;28;20197;-68
2021/06/13 06:21:39;;;;;;;3.27;3.03;;;;;;;14.31;66.21;98901.13;5096500;28;20259;-68
2021/06/13 06:24:09;;;;;;;4.33;3.87;;;;;;;14.42;66.00;98889.31;5097411;28;20205;-68
2021/06/13 06:26:37;;;;;;;4.77;3.20;;;;;;;14.44;64.15;98893.44;5098893;28;20225;-67
2021/06/13 06:29:05;;;;;;;7.63;3.10;;;;;;;14.59;64.50;98890.94;5101465;28;20503;-67
2021/06/13 06:31:33;;;;;;;4.37;3.77;;;;;;;14.69;63.03;98896.13;5102996;28;20210;-67
2021/06/13 06:34:02;;;;;;;5.73;3.63;;;;;;;14.81;62.72;98887.78;5104740;28;20298;-68
2021/06/13 06:36:30;;;;;;;7.67;3.47;;;;;;;14.82;62.79;98884.13;5100784;28;20221;-67
2021/06/13 06:38:58;;;;;;;4.73;3.30;;;;;;;14.95;63.01;98891.59;5102344;28;20221;-68
2021/06/13 06:41:26;;;;;;;5.00;3.00;;;;;;;15.11;62.05;98885.38;5103999;28;20206;-68
2021/06/13 06:43:54;;;;;;;5.53;3.20;;;;;;;15.22;60.00;98890.34;5102512;28;20194;-68
2021/06/13 06:46:22;;;;;;;5.20;3.20;;;;;;;15.09;60.10;98898.91;5103950;28;20303;-66
2021/06/13 06:48:50;;;;;;;4.40;2.80;;;;;;;15.11;60.46;98902.22;5106913;27;20228;-68
2021/06/13 06:51:19;;;;;;;5.60;2.87;;;;;;;15.24;60.30;98903.53;5107798;27;20197;-67
2021/06/13 06:53:47;;;;;;;4.60;3.13;;;;;;;15.29;59.47;98903.84;5099845;28;20222;-67
2021/06/13 06:56:15;;;;;;;6.33;3.47;;;;;;;15.22;58.49;98910.91;5100253;28;20237;-66
2021/06/13 06:58:43;;;;;;;3.70;3.37;;;;;;;15.14;57.59;98915.22;5104871;28;20697;-68
2021/06/13 07:01:11;;;;;;;6.80;3.47;;;;;;;14.89;59.06;98906.44;5103758;28;20210;-67
2021/06/13 07:03:39;;;;;;;6.17;3.40;;;;;;;14.99;60.60;98907.13;5104244;28;20205;-67
2021/06/13 07:06:07;;;;;;;5.30;2.53;;;;;;;15.12;59.36;98919.91;5103623;28;20226;-67
2021/06/13 07:08:36;;;;;;;4.50;3.60;;;;;;;15.17;59.90;98924.75;5103052;28;20676;-69
2021/06/13 07:11:04;;;;;;;5.43;3.43;;;;;;;15.20;59.88;98927.06;5102197;28;20206;-68
2021/06/13 07:13:32;;;;;;;3.30;3.07;;;;;;;15.37;57.10;98929.72;5099576;28;20222;-67
2021/06/13 07:16:01;;;;;;;4.93;3.10;;;;;;;15.14;57.22;98941.09;5096148;28;20269;-68
2021/06/13 07:18:29;;;;;;;3.20;2.90;;;;;;;15.10;57.62;98942.44;5099542;28;20197;-68
2021/06/13 07:20:57;;;;;;;4.07;3.10;;;;;;;15.14;58.39;98938.44;5102087;28;20282;-68
2021/06/13 07:23:25;;;;;;;3.30;3.00;;;;;;;15.21;58.60;98943.94;5085797;27;20615;-70
2021/06/13 07:25:54;;;;;;;7.33;3.23;;;;;;;15.32;60.32;98941.72;5080695;28;20238;-71
2021/06/13 07:28:22;;;;;;;3.63;3.17;;;;;;;15.21;58.05;98947.44;5079870;28;20623;-70
2021/06/13 07:30:50;;;;;;;6.83;3.27;;;;;;;15.41;58.58;98944.38;5084118;28;20206;-70
2021/06/13 07:33:18;;;;;;;3.50;3.17;;;;;;;15.81;57.31;98939.03;5083719;28;20230;-69
2021/06/13 07:35:46;;;;;;;6.30;3.47;;;;;;;15.94;57.04;98946.53;5081310;28;20732;-71
2021/06/13 07:38:14;;;;;;;5.00;3.10;;;;;;;15.95;56.87;98950.84;5082724;28;20210;-71
2021/06/13 07:40:42;;;;;;;5.47;3.10;;;;;;;15.66;56.33;98949.63;5078310;28;20215;-71
2021/06/13 07:43:11;;;;;;;5.83;3.20;;;;;;;15.35;56.43;98951.22;5080468;28;20427;-69
2021/06/13 07:45:40;;;;;;;4.33;2.97;;;;;;;15.36;56.25;98952.09;5080020;28;20230;-71
2021/06/13 07:48:10;;;;;;;3.13;2.83;;;;;;;15.37;56.45;98951.06;5079205;28;20828;-70
2021/06/13 07:50:40;;;;;;;3.50;3.10;;;;;;;15.62;55.03;98949.16;5078963;28;20206;-70
2021/06/13 07:53:09;;;;;;;2.87;2.73;;;;;;;15.75;55.59;98953.94;5083017;28;20221;-70
2021/06/13 07:55:37;;;;;;;4.80;2.93;;;;;;;15.87;53.57;98957.88;5083285;28;20230;-70
2021/06/13 07:58:05;;;;;;;4.27;3.10;;;;;;;15.95;53.61;98951.69;5082740;28;20198;-70
2021/06/13 08:00:34;;;;;;;4.23;3.03;;;;;;;16.24;52.88;98944.81;5081690;28;20604;-70
2021/06/13 08:03:02;;;;;;;5.63;3.43;;;;;;;16.41;52.37;98947.41;5081398;28;20876;-70
2021/06/13 08:05:30;;;;;;;5.97;3.37;;;;;;;16.27;52.92;98943.66;5079696;28;20288;-70
2021/06/13 08:07:59;;;;;;;3.60;3.00;;;;;;;16.54;52.34;98946.81;5075536;28;20206;-70
2021/06/13 08:10:29;;;;;;;4.70;3.07;;;;;;;16.24;51.56;98944.81;5081239;28;20236;-70
2021/06/13 08:12:57;;;;;;;3.60;3.00;;;;;;;16.43;51.37;98943.53;5083333;28;20202;-69
2021/06/13 08:15:26;;;;;;;3.47;3.17;;;;;;;16.60;51.79;98948.75;5080505;28;20222;-69
2021/06/13 08:17:56;;;;;;;5.43;2.80;;;;;;;16.45;52.76;98954.88;5081276;28;20202;-69
2021/06/13 08:20:24;;;;;;;4.13;2.90;;;;;;;16.33;52.54;98948.28;5081023;28;20202;-69
2021/06/13 08:22:52;;;;;;;5.30;3.07;;;;;;;16.35;53.83;98952.47;5082403;28;20700;-69
2021/06/13 08:25:21;;;;;;;10.50;3.00;;;;;;;16.67;51.82;98943.50;5080711;28;20233;-70
2021/06/13 08:27:49;;;;;;;6.50;3.37;;;;;;;16.56;51.94;98944.78;5081370;28;20206;-70
2021/06/13 08:30:18;;;;;;;3.63;3.00;;;;;;;16.37;51.73;98941.56;5082814;28;20207;-70
2021/06/13 08:32:46;;;;;;;5.47;3.30;;;;;;;16.25;52.64;98938.47;5081752;28;20710;-70
2021/06/13 08:35:16;;;;;;;3.90;3.00;;;;;;;16.46;52.13;98937.81;5082123;28;20528;-70
2021/06/13 08:37:49;;;;;;;3.83;3.17;;;;;;;16.53;51.86;98931.75;5083045;28;20190;-71
2021/06/13 08:40:18;;;;;;;3.97;3.07;;;;;;;16.46;51.39;98937.00;5083121;28;20273;-70
2021/06/13 08:42:46;;;;;;;4.43;2.90;;;;;;;16.25;51.79;98935.78;5082834;28;20206;-69
2021/06/13 08:45:15;;;;;;;3.87;2.77;;;;;;;16.32;49.92;98941.28;5081042;28;20229;-69
2021/06/13 08:47:46;;;;;;;3.50;3.20;;;;;;;16.29;49.93;98945.16;5082606;28;20222;-70
2021/06/13 08:50:16;;;;;;;3.40;3.10;;;;;;;16.40;50.24;98941.19;5078169;28;20198;-70
2021/06/13 08:52:44;;;;;;;4.30;3.20;;;;;;;16.60;51.43;98943.41;5080144;28;20209;-69
2021/06/13 08:55:12;;;;;;;3.80;3.10;;;;;;;16.86;51.75;98931.50;5081707;28;20456;-70
2021/06/13 08:57:41;;;;;;;6.17;3.77;;;;;;;16.94;51.08;98934.09;5078008;28;20230;-70
2021/06/13 09:00:11;;;;;;;5.17;2.80;;;;;;;16.95;48.42;98934.91;5081700;28;20206;-69
2021/06/13 09:02:39;;;;;;;5.60;3.13;;;;;;;16.89;48.77;98942.66;5073569;28;20210;-69
2021/06/13 09:05:09;;;;;;;3.10;2.90;;;;;;;16.84;49.17;98952.22;5080579;28;20209;-68
2021/06/13 09:07:47;;;;;;;3.40;2.93;;;;;;;16.66;48.24;98955.22;5081811;28;20218;-68
2021/06/13 09:10:19;;;;;;;2.80;2.60;;;;;;;16.47;47.56;98947.50;5079327;28;20225;-69
2021/06/13 09:12:47;;;;;;;5.53;3.37;;;;;;;16.40;48.03;98957.25;5079949;28;20198;-70
2021/06/13 09:15:16;;;;;;;4.47;2.80;;;;;;;16.42;49.02;98947.22;5079031;28;20477;-71
2021/06/13 09:17:44;;;;;;;4.93;3.00;;;;;;;16.75;48.88;98949.63;5079892;28;20582;-70
2021/06/13 09:20:19;;;;;;;4.97;2.90;;;;;;;16.96;48.60;98947.28;5081113;28;20484;-69
2021/06/13 09:23:06;;;;;;;4.20;2.57;;;;;;;17.10;47.80;98942.97;5081193;28;20202;-71
2021/06/13 09:25:34;;;;;;;5.23;2.70;;;;;;;16.94;47.72;98952.81;5081220;28;20202;-70
2021/06/13 09:28:07;;;;;;;4.67;2.83;;;;;;;16.82;47.53;98951.56;5077926;28;20615;-69
2021/06/13 09:30:38;;;;;;;4.77;2.87;;;;;;;16.94;48.53;98950.13;5081671;28;20601;-70
2021/06/13 09:33:10;;;;;;;4.60;2.60;;;;;;;17.21;47.64;98945.19;5080890;28;20206;-72
2021/06/13 09:35:39;;;;;;;4.63;2.60;;;;;;;17.00;47.83;98943.25;5078416;28;20229;-70
2021/06/13 09:38:12;;;;;;;4.60;2.83;;;;;;;17.21;47.74;98942.53;5076685;28;20611;-70
2021/06/13 09:40:42;;;;;;;4.07;2.60;;;;;;;17.31;47.31;98942.25;5078101;28;20213;-68
2021/06/13 09:43:18;;;;;;;4.10;2.53;;;;;;;17.27;48.04;98933.78;5076969;28;20578;-70
2021/06/13 09:45:48;;;;;;;5.57;3.00;;;;;;;17.62;48.40;98936.72;5078167;28;20257;-71
2021/06/13 09:48:17;;;;;;;4.13;3.10;;;;;;;17.64;46.48;98932.00;5080588;28;20740;-72
2021/06/13 09:50:47;;;;;;;7.23;2.93;;;;;;;17.55;47.42;98932.28;5077100;28;20203;-70
2021/06/13 09:53:32;;;;;;;3.83;2.50;;;;;;;17.68;45.75;98929.75;5079483;28;20541;-72
2021/06/13 09:56:16;;;;;;;3.77;2.57;;;;;;;17.70;46.35;98930.41;5078379;28;20240;-71
2021/06/13 09:59:03;;;;;;;5.77;3.10;;;;;;;17.62;45.94;98927.84;5080110;28;20213;-69
2021/06/13 10:01:35;;;;;;;3.60;2.70;;;;;;;17.60;46.51;98933.38;5077668;28;20205;-70
2021/06/13 10:04:04;;;;;;;4.37;2.77;;;;;;;17.61;47.03;98931.53;5073307;28;20258;-69
2021/06/13 10:06:34;;;;;;;4.57;3.23;;;;;;;17.67;46.52;98932.66;5081156;28;20218;-70
2021/06/13 10:09:08;;;;;;;4.90;3.07;;;;;;;17.82;45.74;98946.03;5074918;28;20214;-71
2021/06/13 10:11:38;;;;;;;3.70;3.07;;;;;;;17.51;45.77;98939.84;5077988;28;20205;-70
2021/06/13 10:14:08;;;;;;;3.63;2.80;;;;;;;17.86;45.17;98948.13;5082226;28;20210;-70
2021/06/13 10:16:41;;;;;;;4.13;2.87;;;;;;;17.89;45.57;98949.63;5079944;28;20225;-72
2021/06/13 10:19:12;;;;;;;3.30;2.70;;;;;;;18.02;45.50;98952.47;5081694;28;20198;-72
2021/06/13 10:21:43;;;;;;;4.53;3.30;;;;;;;18.04;45.52;98946.94;5082550;28;20225;-72
2021/06/13 10:24:14;;;;;;;4.77;3.03;;;;;;;17.91;45.48;98952.94;5078581;28;20210;-70
2021/06/13 10:26:45;;;;;;;3.10;2.70;;;;;;;17.66;46.28;98937.16;5080928;28;20222;-70
2021/06/13 10:29:14;;;;;;;5.70;2.87;;;;;;;18.05;45.14;98946.72;5081250;28;20326;-69
2021/06/13 10:31:43;;;;;;;4.43;3.30;;;;;;;17.89;43.07;98946.94;5078902;28;20213;-70
2021/06/13 10:34:11;;;;;;;3.17;2.87;;;;;;;18.04;43.00;98936.22;5080890;28;20631;-69
2021/06/13 10:36:41;;;;;;;4.03;3.23;;;;;;;18.13;45.18;98942.25;5074807;28;20230;-72
2021/06/13 10:39:10;;;;;;;5.83;2.53;;;;;;;18.29;44.04;98941.19;5080205;28;20211;-72
2021/06/13 10:41:40;;;;;;;4.40;2.30;;;;;;;18.71;42.82;98944.88;5078525;28;20199;-71
2021/06/13 10:44:11;;;;;;;3.27;2.77;;;;;;;18.88;42.64;98950.81;5079696;28;20214;-70
2021/06/13 10:46:40;;;;;;;5.70;2.50;;;;;;;19.17;42.31;98932.88;5080511;28;20241;-71
2021/06/13 10:49:27;;;;;;;3.20;2.77;;;;;;;20.40;40.12;98935.84;5080889;28;20198;-68
2021/06/13 10:52:08;;;;;;;4.90;2.73;;;;;;;20.45;40.49;98943.28;5085126;28;20221;-70
2021/06/13 10:54:40;;;;;;;2.83;2.53;;;;;;;21.25;38.81;98942.47;5083109;28;20205;-70
2021/06/13 10:57:32;;;;;;;3.83;3.40;;;;;;;21.11;38.79;98952.44;5082882;28;20416;-71
2021/06/13 11:00:05;;;;;;;3.23;2.73;;;;;;;20.59;37.83;98954.91;5083961;28;20213;-72
2021/06/13 11:02:59;;;;;;;3.93;2.87;;;;;;;21.84;35.14;98945.25;5083897;28;20198;-71
2021/06/13 11:05:47;;;;;;;4.70;2.43;;;;;;;22.15;36.44;98943.59;5073332;28;20202;-72
2021/06/13 11:08:16;;;;;;;4.40;2.50;;;;;;;22.10;35.46;98938.88;5082332;28;20673;-70
2021/06/13 11:10:46;;;;;;;3.33;2.53;;;;;;;22.44;34.96;98935.16;5083564;28;20214;-72
2021/06/13 11:13:30;;;;;;;3.33;2.30;;;;;;;21.76;35.43;98940.91;5084118;28;20210;-71
2021/06/13 11:16:03;;;;;;;3.30;2.10;;;;;;;21.71;34.98;98929.94;5083399;28;20233;-71
2021/06/13 11:18:37;;;;;;;3.53;2.20;;;;;;;21.69;36.94;98929.31;5082146;28;20213;-71
2021/06/13 11:21:17;;;;;;;2.87;2.67;;;;;;;21.87;34.17;98922.38;5083588;28;20213;-72
2021/06/13 11:23:47;;;;;;;2.30;2.20;;;;;;;21.56;37.36;98924.78;5081700;28;20222;-70
2021/06/13 11:26:38;;;;;;;3.57;2.53;;;;;;;21.38;36.99;98934.34;5083779;28;20244;-71
2021/06/13 11:29:10;;;;;;;3.30;3.00;;;;;;;21.58;36.56;98933.47;5080156;28;20213;-68
2021/06/13 11:31:49;;;;;;;2.87;2.57;;;;;;;20.71;37.82;98938.97;5082214;28;20206;-68
2021/06/13 11:34:17;;;;;;;4.70;3.17;;;;;;;20.71;41.07;98928.19;5083727;28;20656;-73
2021/06/13 11:36:46;;;;;;;4.07;3.40;;;;;;;21.51;37.54;98914.63;5080406;28;20230;-73
2021/06/13 11:39:27;;;;;;;4.30;2.63;;;;;;;21.01;39.99;98914.34;5084833;28;20210;-70
2021/06/13 11:42:09;;;;;;;2.77;2.30;;;;;;;21.49;37.69;98921.28;5082075;28;20717;-70
2021/06/13 11:44:42;;;;;;;2.83;2.63;;;;;;;21.66;37.59;98900.09;5080231;28;20210;-70
2021/06/13 11:47:33;;;;;;;6.67;5.30;;;;;;;21.00;38.52;98900.03;5083273;28;20218;-70
2021/06/13 11:50:07;;;;;;;7.13;5.87;;;;;;;21.04;38.56;98897.75;5083190;28;20776;-71